createdAt,value
2017-09-04T20:14:31.591Z,59.89
2017-09-04T20:16:59.508Z,60.12
2017-09-04T20:19:27.432Z,60.52
2017-09-04T20:21:55.368Z,60.73
2017-09-04T20:24:23.277Z,60.78
2017-09-04T20:26:51.213Z,60.66
2017-09-04T20:29:19.120Z,61.01
2017-09-04T20:31:47.053Z,60.80
2017-09-04T20:34:15.163Z,61.00
2017-09-04T20:36:43.072Z,61.25
2017-09-04T20:39:10.979Z,61.38
2017-09-04T20:41:38.960Z,61.21
2017-09-04T20:44:06.882Z,60.83
2017-09-04T20:46:34.795Z,61.24
2017-09-04T20:49:02.777Z,61.33
2017-09-04T20:51:30.710Z,61.82
2017-09-04T20:53:58.718Z,62.07
2017-09-04T20:56:26.628Z,61.82
2017-09-04T20:59:09.655Z,62.30
2017-09-04T21:01:37.576Z,62.01
2017-09-04T21:04:05.492Z,61.98
2017-09-04T21:09:34.381Z,62.40
2017-09-04T21:12:02.288Z,62.68
2017-09-04T21:14:30.206Z,62.63
2017-09-04T21:16:58.152Z,62.60
2017-09-04T21:19:26.215Z,62.86
2017-09-04T21:21:54.133Z,62.83
2017-09-04T21:24:22.024Z,62.94
2017-09-04T21:26:49.946Z,62.89
2017-09-04T21:29:17.862Z,63.38
2017-09-04T21:31:45.755Z,63.63
2017-09-04T21:34:13.684Z,64.66
2017-09-04T21:36:41.589Z,65.17
2017-09-04T21:39:09.515Z,64.67
2017-09-04T21:41:37.411Z,64.92
2017-09-04T21:44:05.312Z,65.96
2017-09-04T21:46:33.281Z,65.98
2017-09-04T21:49:01.234Z,66.36
2017-09-04T21:51:29.162Z,65.52
2017-09-04T21:53:57.072Z,66.20
2017-09-04T21:56:24.966Z,66.30
2017-09-04T21:58:52.878Z,66.39
2017-09-04T22:01:20.886Z,65.84
2017-09-04T22:03:48.810Z,65.80
2017-09-04T22:06:16.726Z,66.12
2017-09-04T22:08:44.664Z,67.29
2017-09-04T22:11:12.583Z,66.63
2017-09-04T22:13:40.511Z,66.87
2017-09-04T22:16:08.482Z,67.46
2017-09-04T22:18:36.452Z,68.84
2017-09-04T22:21:04.655Z,67.53
2017-09-04T22:23:32.611Z,68.70
2017-09-04T22:26:00.539Z,68.80
2017-09-04T22:28:29.156Z,69.39
2017-09-04T22:30:57.081Z,69.20
2017-09-04T22:33:24.984Z,68.37
2017-09-04T22:35:52.920Z,68.50
2017-09-04T22:38:20.834Z,68.91
2017-09-04T22:40:48.774Z,69.18
2017-09-04T22:43:16.698Z,68.72
2017-09-04T22:45:44.613Z,69.27
2017-09-04T22:48:12.513Z,70.25
2017-09-04T22:50:40.426Z,69.80
2017-09-04T22:53:08.326Z,70.06
2017-09-04T22:55:36.239Z,70.52
2017-09-04T22:58:04.790Z,71.21
2017-09-04T23:00:32.703Z,71.14
2017-09-04T23:03:00.632Z,71.38
2017-09-04T23:05:28.527Z,71.41
2017-09-04T23:07:56.465Z,72.33
2017-09-04T23:10:24.357Z,72.25
2017-09-04T23:12:52.272Z,72.74
2017-09-04T23:15:20.184Z,72.37
2017-09-04T23:17:48.105Z,72.91
2017-09-04T23:20:16.042Z,72.91
2017-09-04T23:22:43.935Z,73.10
2017-09-04T23:25:11.975Z,73.41
2017-09-04T23:27:40.086Z,73.26
2017-09-04T23:30:07.996Z,73.25
2017-09-04T23:32:35.913Z,72.88
2017-09-04T23:35:03.817Z,72.79
2017-09-04T23:37:31.730Z,72.72
2017-09-04T23:39:59.631Z,73.37
2017-09-04T23:42:27.538Z,72.85
2017-09-04T23:44:55.454Z,73.25
2017-09-04T23:47:23.448Z,73.08
2017-09-04T23:49:51.366Z,73.70
2017-09-04T23:52:19.273Z,73.39
2017-09-04T23:54:47.202Z,72.96
2017-09-04T23:57:15.112Z,73.52
2017-09-04T23:59:43.110Z,73.16
